Huvudsida
METAR-TAF:

METAR-TAF

Flygplatser :

Bardufoss flygplats

Bardufoss, Norge

latitud: 69-04N, longitud: 018-32E, höjd: 7 m

Aktuellt väderrapport

Denna rapport gjordes för 34 minuter sedan, klockan 20:50 UTC
Vind 1 kt varierande vindriktning
Temperatur -26°C
Fuktighet 83%
Tryck 1010 hPa
Sikt 10 km eller mer
Inga moln under 1 500 m eller inga cumulonimbus

METAR: ENDU 262050Z VRB01KT CAVOK M26/M28 Q1010 RMK WIND 1100FT 09013KT WIND 2200FT 11023KT

Tid: 22:24 (21:24 UTC)

Väderprognos

Prognos gäller från 26 kl. 18 UTC till 27 kl. 18 UTC
Vind 3 kt varierande vindriktning
Sikt 10 km eller mer
Få moln på en höjd av 4000 ft
Temporärt
från 27 kl. 03 UTC till 27 kl. 18 UTC
Vind 15 kt från ost/sydost

TAF: ENDU 2618/2718 VRB03KT 9999 FEW040 TEMPO 2703/2718 12015KT

Aktuella väderrapporter och prognoser från 4000 flygplatser (METAR- och TAF-rapporter).

De tillgängliga stationerna syns som gula och röda prickar på kartan.

För musen över prickarna för att se namnen på stationerna.

Klicka sedan för att få väderrapporter och prognoser.

För att ändra kartan: Klicka på de gröna knapparna med ett svart kors på för att zooma in; den gröna knappen med ett streck på för att zooma ut; eller på de gröna pilarna för angränsande kartor.


METAR-TAF: